Elbella — 9HA2358 — position and weather

sailwx.info

Track history (hours):
 
Tides and Currents Weather Stations Pressure Air Temp Water Temp Dewpoint Dewpoint Depression Visibility Wind Speed Wind Dir Waves Ship Positions

Elbella

Last reported at 2014-Sep-22 10:31 UTC. Time now 2014-Sep-22 12:17 UTC.
Position N 36°07' E 025°52'.

Length 176 m; draft 10.1 m.

Type: Ship (hazmat cat A). MMSI: 248422000.

Date/timePositionNaut miles runAvg speedWind from/ knotsBaromVisibWave heightAir tempDewpointWater temp
2014-Sep-22 10:31N 36°07' E 025°52'1818.7
2014-Sep-22 09:33N 36°04' E 025°30'1918.6
2014-Sep-22 08:33N 36°01' E 025°08'1818.0
2014-Sep-22 07:33N 35°59' E 024°46'1817.7
2014-Sep-22 06:33N 35°56' E 024°24'1817.7
2014-Sep-22 05:33N 35°54' E 024°03'2317.8
2014-Sep-22 04:17N 35°50' E 023°35'1917.0
2014-Sep-22 03:10N 35°42' E 023°14'39813.8
2014-Sep-20 22:23N 35°47' E 015°03'1012.1
2014-Sep-20 21:33N 35°47' E 014°51'1111.6
2014-Sep-20 20:34N 35°47' E 014°37'4 3.6
2014-Sep-20 19:29N 35°49' E 014°33'0 0.0
2014-Sep-20 18:32N 35°49' E 014°33'0 0.0
2014-Sep-20 14:26N 35°49' E 014°33'0 0.0
2014-Sep-20 12:26N 35°49' E 014°33'0 0.0
2014-Sep-20 11:20N 35°49' E 014°33'0 0.0
2014-Sep-20 10:32N 35°49' E 014°33'0 0.0
2014-Sep-20 09:29N 35°49' E 014°33'0 0.0
2014-Sep-20 08:34N 35°49' E 014°33'0 0.0
2014-Sep-20 07:33N 35°49' E 014°33'0 0.0
2014-Sep-20 03:04N 35°49' E 014°33'0 0.0
2014-Sep-20 00:03N 35°49' E 014°33'0 0.0
2014-Sep-19 23:33N 35°49' E 014°33'0 0.0
2014-Sep-19 22:34N 35°49' E 014°33'0 0.0
2014-Sep-19 21:34N 35°49' E 014°33'0 0.0
2014-Sep-19 09:33N 35°49' E 014°33'0 0.4
2014-Sep-19 08:32N 35°49' E 014°32'7 7.0
2014-Sep-19 07:33N 35°44' E 014°38'1616.2
2014-Sep-19 06:33N 35°29' E 014°46'1818.0
2014-Sep-19 05:33N 35°12' E 014°50'11418.1
2014-Sep-18 23:15N 33°19' E 015°12'1318.1
2014-Sep-18 22:33N 33°07' E 015°15'1818.3
2014-Sep-18 21:33N 32°48' E 015°16'1818.4
2014-Sep-18 20:33N 32°30' E 015°15'8 7.4
2014-Sep-18 19:27N 32°22' E 015°13'0 0.0
2014-Sep-18 18:33N 32°22' E 015°13'0 0.0
2014-Sep-18 17:33N 32°22' E 015°13'0 0.0
2014-Sep-18 16:33N 32°22' E 015°13'0 0.0
2014-Sep-18 15:21N 32°22' E 015°13'0 0.0
2014-Sep-18 14:24N 32°22' E 015°13'0 0.0
2014-Sep-18 13:30N 32°22' E 015°13'0 0.0
2014-Sep-18 12:33N 32°22' E 015°13'0 0.0
2014-Sep-18 03:06N 32°22' E 015°13'0 0.0
2014-Sep-18 02:33N 32°22' E 015°13'0 0.0
2014-Sep-18 01:33N 32°22' E 015°13'0 0.0
2014-Sep-17 18:33N 32°22' E 015°13'0 0.0
2014-Sep-17 17:33N 32°22' E 015°13'0 0.0
2014-Sep-17 16:33N 32°22' E 015°13'0 0.0
2014-Sep-17 15:24N 32°22' E 015°13'0 0.0
2014-Sep-16 20:33N 32°22' E 015°13'0 0.0
2014-Sep-16 19:23N 32°22' E 015°13'0 0.0
2014-Sep-16 17:32N 32°22' E 015°13'0 0.0
2014-Sep-16 16:25N 32°22' E 015°13'0 0.0
2014-Sep-16 15:33N 32°22' E 015°13'0 0.0
2014-Sep-16 14:32N 32°22' E 015°13'0 0.0
2014-Sep-16 13:20N 32°22' E 015°13'0 0.0
2014-Sep-16 11:18N 32°22' E 015°13'5 0.4
2014-Sep-15 23:20N 32°23' E 015°19'0 0.0
2014-Sep-15 20:16N 32°23' E 015°19'0 0.0
2014-Sep-15 17:29N 32°23' E 015°19'0 0.0
2014-Sep-15 15:14N 32°23' E 015°19'3 3.8
2014-Sep-15 14:33N 32°23' E 015°16'6 6.2
2014-Sep-15 13:33N 32°29' E 015°16'8 8.3
2014-Sep-15 12:33N 32°35' E 015°23'1111.2
2014-Sep-15 11:33N 32°36' E 015°37'1111.3
2014-Sep-15 10:33N 32°37' E 015°50'  
Track history (hours):
 
Tides and Currents Weather Stations Pressure Air Temp Water Temp Dewpoint Dewpoint Depression Visibility Wind Speed Wind Dir Waves Ship Positions

Elbella

Last reported at 2014-Sep-22 10:31 UTC. Time now 2014-Sep-22 12:17 UTC.
Position N 36°07' E 025°52'.

Length 176 m; draft 10.1 m.

Type: Ship (hazmat cat A). MMSI: 248422000.

Date/timePositionNaut miles runAvg speedWind from/ knotsBaromVisibWave heightAir tempDewpointWater temp
2014-Sep-22 10:31N 36°07' E 025°52'1818.7
2014-Sep-22 09:33N 36°04' E 025°30'1918.6
2014-Sep-22 08:33N 36°01' E 025°08'1818.0
2014-Sep-22 07:33N 35°59' E 024°46'1817.7
2014-Sep-22 06:33N 35°56' E 024°24'1817.7
2014-Sep-22 05:33N 35°54' E 024°03'2317.8
2014-Sep-22 04:17N 35°50' E 023°35'1917.0
2014-Sep-22 03:10N 35°42' E 023°14'39813.8
2014-Sep-20 22:23N 35°47' E 015°03'1012.1
2014-Sep-20 21:33N 35°47' E 014°51'1111.6
2014-Sep-20 20:34N 35°47' E 014°37'4 3.6
2014-Sep-20 19:29N 35°49' E 014°33'0 0.0
2014-Sep-20 18:32N 35°49' E 014°33'0 0.0
2014-Sep-20 14:26N 35°49' E 014°33'0 0.0
2014-Sep-20 12:26N 35°49' E 014°33'0 0.0
2014-Sep-20 11:20N 35°49' E 014°33'0 0.0
2014-Sep-20 10:32N 35°49' E 014°33'0 0.0
2014-Sep-20 09:29N 35°49' E 014°33'0 0.0
2014-Sep-20 08:34N 35°49' E 014°33'0 0.0
2014-Sep-20 07:33N 35°49' E 014°33'0 0.0
2014-Sep-20 03:04N 35°49' E 014°33'0 0.0
2014-Sep-20 00:03N 35°49' E 014°33'0 0.0
2014-Sep-19 23:33N 35°49' E 014°33'0 0.0
2014-Sep-19 22:34N 35°49' E 014°33'0 0.0
2014-Sep-19 21:34N 35°49' E 014°33'0 0.0
2014-Sep-19 09:33N 35°49' E 014°33'0 0.4
2014-Sep-19 08:32N 35°49' E 014°32'7 7.0
2014-Sep-19 07:33N 35°44' E 014°38'1616.2
2014-Sep-19 06:33N 35°29' E 014°46'1818.0
2014-Sep-19 05:33N 35°12' E 014°50'11418.1
2014-Sep-18 23:15N 33°19' E 015°12'1318.1
2014-Sep-18 22:33N 33°07' E 015°15'1818.3
2014-Sep-18 21:33N 32°48' E 015°16'1818.4
2014-Sep-18 20:33N 32°30' E 015°15'8 7.4
2014-Sep-18 19:27N 32°22' E 015°13'0 0.0
2014-Sep-18 18:33N 32°22' E 015°13'0 0.0
2014-Sep-18 17:33N 32°22' E 015°13'0 0.0
2014-Sep-18 16:33N 32°22' E 015°13'0 0.0
2014-Sep-18 15:21N 32°22' E 015°13'0 0.0
2014-Sep-18 14:24N 32°22' E 015°13'0 0.0
2014-Sep-18 13:30N 32°22' E 015°13'0 0.0
2014-Sep-18 12:33N 32°22' E 015°13'0 0.0
2014-Sep-18 03:06N 32°22' E 015°13'0 0.0
2014-Sep-18 02:33N 32°22' E 015°13'0 0.0
2014-Sep-18 01:33N 32°22' E 015°13'0 0.0
2014-Sep-17 18:33N 32°22' E 015°13'0 0.0
2014-Sep-17 17:33N 32°22' E 015°13'0 0.0
2014-Sep-17 16:33N 32°22' E 015°13'0 0.0
2014-Sep-17 15:24N 32°22' E 015°13'0 0.0
2014-Sep-16 20:33N 32°22' E 015°13'0 0.0
2014-Sep-16 19:23N 32°22' E 015°13'0 0.0
2014-Sep-16 17:32N 32°22' E 015°13'0 0.0
2014-Sep-16 16:25N 32°22' E 015°13'0 0.0
2014-Sep-16 15:33N 32°22' E 015°13'0 0.0
2014-Sep-16 14:32N 32°22' E 015°13'0 0.0
2014-Sep-16 13:20N 32°22' E 015°13'0 0.0
2014-Sep-16 11:18N 32°22' E 015°13'5 0.4
2014-Sep-15 23:20N 32°23' E 015°19'0 0.0
2014-Sep-15 20:16N 32°23' E 015°19'0 0.0
2014-Sep-15 17:29N 32°23' E 015°19'0 0.0
2014-Sep-15 15:14N 32°23' E 015°19'3 3.8
2014-Sep-15 14:33N 32°23' E 015°16'6 6.2
2014-Sep-15 13:33N 32°29' E 015°16'8 8.3
2014-Sep-15 12:33N 32°35' E 015°23'1111.2
2014-Sep-15 11:33N 32°36' E 015°37'1111.3
2014-Sep-15 10:33N 32°37' E 015°50'  

Dump ship's entire track history